createdAt,value
2023-04-26T00:01:37.869Z,4.11
2023-04-26T00:04:05.058Z,4.10
2023-04-26T00:06:32.412Z,4.19
2023-04-26T00:08:59.625Z,4.00
2023-04-26T00:11:26.514Z,3.98
2023-04-26T00:13:55.205Z,4.02
2023-04-26T00:16:22.140Z,3.98
2023-04-26T00:18:49.734Z,3.88
2023-04-26T00:21:16.694Z,3.63
2023-04-26T00:23:43.652Z,3.43
2023-04-26T00:26:11.946Z,3.16
2023-04-26T00:28:41.220Z,3.21
2023-04-26T00:31:08.124Z,3.33
2023-04-26T00:33:35.300Z,3.39
2023-04-26T00:36:02.222Z,3.52
2023-04-26T00:38:29.191Z,3.59
2023-04-26T00:40:56.281Z,3.50
2023-04-26T00:43:23.345Z,3.37
2023-04-26T00:45:50.513Z,3.25
2023-04-26T00:48:18.519Z,3.33
2023-04-26T00:50:45.797Z,3.27
2023-04-26T00:53:14.770Z,2.89
2023-04-26T00:55:43.491Z,2.99
2023-04-26T00:58:11.164Z,3.13
2023-04-26T01:00:38.235Z,2.92
2023-04-26T01:03:05.533Z,2.93
2023-04-26T01:05:32.682Z,2.76
2023-04-26T01:08:02.430Z,2.72
2023-04-26T01:10:29.862Z,3.03
2023-04-26T01:12:58.233Z,2.97
2023-04-26T01:15:28.377Z,3.00
2023-04-26T01:17:55.308Z,2.85
2023-04-26T01:20:22.458Z,2.52
2023-04-26T01:22:49.223Z,2.65
2023-04-26T01:25:17.536Z,2.73
2023-04-26T01:27:44.630Z,2.70
2023-04-26T01:30:12.722Z,2.58
2023-04-26T01:32:39.606Z,2.68
2023-04-26T01:35:07.628Z,2.75
2023-04-26T01:37:34.448Z,2.93
2023-04-26T01:40:01.670Z,3.23
2023-04-26T01:42:29.364Z,2.98
2023-04-26T01:44:56.445Z,2.84
2023-04-26T01:47:23.346Z,2.72
2023-04-26T01:49:50.247Z,2.73
2023-04-26T01:52:16.994Z,3.09
2023-04-26T01:54:44.226Z,3.39
2023-04-26T01:57:11.172Z,3.52
2023-04-26T01:59:37.979Z,3.71
2023-04-26T02:02:06.077Z,3.63
2023-04-26T02:04:33.017Z,3.32
2023-04-26T02:06:59.884Z,3.40
2023-04-26T02:09:26.723Z,3.48
2023-04-26T02:11:53.688Z,3.56
2023-04-26T02:14:20.704Z,3.41
2023-04-26T02:16:50.751Z,3.54
2023-04-26T02:19:17.744Z,3.47
2023-04-26T02:21:56.244Z,3.29
2023-04-26T02:24:23.465Z,3.05
2023-04-26T02:26:53.786Z,2.75
2023-04-26T02:29:29.479Z,2.80
2023-04-26T02:32:10.843Z,2.85
2023-04-26T02:34:37.804Z,2.88
2023-04-26T02:37:04.949Z,2.91
2023-04-26T02:39:34.315Z,2.44
2023-04-26T02:42:01.181Z,2.24
2023-04-26T02:44:32.240Z,2.27
2023-04-26T02:46:59.277Z,2.47
2023-04-26T02:49:31.076Z,2.48
2023-04-26T02:52:00.229Z,2.40
2023-04-26T02:54:27.261Z,2.28
2023-04-26T02:56:55.529Z,2.07
2023-04-26T02:59:22.563Z,2.23
2023-04-26T03:01:49.678Z,2.29
2023-04-26T03:04:44.400Z,2.18
2023-04-26T03:07:11.564Z,2.30
2023-04-26T03:09:41.664Z,2.35
2023-04-26T03:12:09.071Z,2.34
2023-04-26T03:14:36.794Z,2.30
2023-04-26T03:17:03.668Z,2.46
2023-04-26T03:19:33.053Z,2.28
2023-04-26T03:22:02.149Z,2.88
2023-04-26T03:24:39.342Z,2.67
2023-04-26T03:27:06.398Z,2.76
2023-04-26T03:29:33.561Z,2.75
2023-04-26T03:32:00.639Z,2.78
2023-04-26T03:34:29.778Z,2.73
2023-04-26T03:36:57.240Z,2.73
2023-04-26T03:39:24.272Z,2.89
2023-04-26T03:41:53.903Z,2.98
2023-04-26T03:44:20.886Z,3.01
2023-04-26T03:46:47.933Z,3.05
2023-04-26T03:49:14.922Z,2.92
2023-04-26T03:51:44.052Z,2.88
2023-04-26T03:54:11.446Z,2.93
2023-04-26T03:56:41.594Z,2.78
2023-04-26T03:59:10.121Z,2.74
2023-04-26T04:01:36.916Z,2.91
2023-04-26T04:04:04.045Z,3.00
2023-04-26T04:06:31.345Z,2.89
2023-04-26T04:08:58.258Z,2.78
2023-04-26T04:11:25.597Z,2.65
2023-04-26T04:13:52.495Z,2.62
2023-04-26T04:16:19.461Z,2.57
2023-04-26T04:18:46.674Z,2.51
2023-04-26T04:21:13.677Z,2.50
2023-04-26T04:23:40.588Z,2.55
2023-04-26T04:26:07.468Z,2.51
2023-04-26T04:28:34.685Z,2.93
2023-04-26T04:31:04.829Z,3.19
2023-04-26T04:33:31.697Z,3.53
2023-04-26T04:35:58.876Z,3.38
2023-04-26T04:38:28.149Z,3.40
2023-04-26T04:40:58.476Z,3.59
2023-04-26T04:43:25.518Z,3.57
2023-04-26T04:45:52.558Z,3.76
2023-04-26T04:48:21.042Z,3.85
2023-04-26T04:50:48.100Z,3.87
2023-04-26T04:53:18.008Z,3.89
2023-04-26T04:55:45.172Z,3.83
2023-04-26T04:58:12.556Z,3.92
2023-04-26T05:00:39.404Z,4.07
2023-04-26T05:03:08.787Z,4.04
2023-04-26T05:05:36.294Z,4.16
2023-04-26T05:08:03.226Z,4.20
2023-04-26T05:10:30.291Z,4.16
2023-04-26T05:12:59.503Z,4.32
2023-04-26T05:15:26.624Z,5.99
2023-04-26T05:17:55.891Z,8.95
2023-04-26T05:20:23.227Z,11.24
2023-04-26T05:22:50.207Z,11.57
2023-04-26T05:25:20.233Z,9.76
2023-04-26T05:27:49.450Z,8.24
2023-04-26T05:30:17.050Z,6.64
2023-04-26T05:32:44.135Z,6.57
2023-04-26T05:35:11.242Z,6.13
2023-04-26T05:37:40.111Z,6.09
2023-04-26T05:40:09.033Z,6.58
2023-04-26T05:42:38.669Z,6.51
2023-04-26T05:45:06.265Z,7.80
2023-04-26T05:47:33.246Z,10.11
2023-04-26T05:50:00.066Z,12.83
2023-04-26T05:52:32.245Z,14.71
2023-04-26T05:54:59.522Z,13.69
2023-04-26T05:57:26.390Z,12.25
2023-04-26T05:59:53.228Z,11.52
2023-04-26T06:02:20.275Z,10.78
2023-04-26T06:04:47.560Z,12.48
2023-04-26T06:07:14.383Z,14.55
2023-04-26T06:09:41.342Z,15.54
2023-04-26T06:12:08.361Z,16.41
2023-04-26T06:14:35.328Z,18.37
2023-04-26T06:17:02.150Z,19.61
2023-04-26T06:19:29.070Z,20.41
2023-04-26T06:21:57.492Z,20.16
2023-04-26T06:24:27.073Z,21.00
2023-04-26T06:26:54.102Z,22.12
2023-04-26T06:29:24.361Z,22.49
2023-04-26T06:31:51.418Z,22.80
2023-04-26T06:34:18.259Z,23.36
2023-04-26T06:36:50.690Z,24.23
2023-04-26T06:39:18.018Z,22.11
2023-04-26T06:41:45.100Z,19.54
2023-04-26T06:44:12.280Z,20.33
2023-04-26T06:46:39.295Z,21.73
2023-04-26T06:49:06.393Z,22.02
2023-04-26T06:51:33.562Z,22.31
2023-04-26T06:54:01.384Z,21.84
2023-04-26T06:56:28.386Z,23.91
2023-04-26T06:59:04.108Z,20.30
2023-04-26T07:01:34.247Z,18.95
2023-04-26T07:04:03.735Z,19.41
2023-04-26T07:06:31.688Z,21.17
2023-04-26T07:08:59.573Z,21.52
2023-04-26T07:11:27.729Z,19.56
2023-04-26T07:13:55.879Z,20.74
2023-04-26T07:16:23.348Z,21.83
2023-04-26T07:18:50.268Z,23.76
2023-04-26T07:21:17.332Z,25.10
2023-04-26T07:23:44.616Z,23.20
2023-04-26T07:26:12.258Z,21.33
2023-04-26T07:28:41.627Z,17.28
2023-04-26T07:31:10.112Z,12.69
2023-04-26T07:33:38.357Z,10.15
2023-04-26T07:36:06.054Z,9.29
2023-04-26T07:38:32.838Z,9.02
2023-04-26T07:41:01.582Z,9.28
2023-04-26T07:43:31.565Z,9.49
2023-04-26T07:46:02.460Z,9.95
2023-04-26T07:48:30.851Z,10.56
2023-04-26T07:50:57.942Z,10.90
2023-04-26T07:53:24.923Z,11.52
2023-04-26T07:55:51.896Z,12.15
2023-04-26T07:58:19.603Z,12.60
2023-04-26T08:00:46.626Z,16.58
2023-04-26T08:03:18.305Z,20.55
2023-04-26T08:05:45.680Z,22.50
2023-04-26T08:08:12.989Z,23.53
2023-04-26T08:10:43.025Z,23.04
2023-04-26T08:13:10.074Z,23.25
2023-04-26T08:15:37.039Z,24.18
2023-04-26T08:18:04.561Z,25.27
2023-04-26T08:20:32.936Z,21.83
2023-04-26T08:23:00.227Z,23.20
2023-04-26T08:25:30.025Z,24.50
2023-04-26T08:27:57.131Z,25.54
2023-04-26T08:30:24.157Z,26.36
2023-04-26T08:32:53.856Z,28.04
2023-04-26T08:35:22.021Z,27.53
2023-04-26T08:37:48.883Z,28.19
2023-04-26T08:40:23.972Z,27.37
2023-04-26T08:42:52.812Z,28.68
2023-04-26T08:45:25.538Z,31.36
2023-04-26T08:48:04.532Z,31.68
2023-04-26T08:50:34.093Z,32.48
2023-04-26T08:53:01.079Z,30.87
2023-04-26T08:55:28.439Z,28.33
2023-04-26T08:57:56.410Z,22.77
2023-04-26T09:00:23.860Z,18.79
2023-04-26T09:02:53.381Z,16.84
2023-04-26T09:05:24.997Z,18.17
2023-04-26T09:07:56.965Z,20.45
2023-04-26T09:10:24.201Z,25.37
2023-04-26T09:12:57.536Z,29.39
2023-04-26T09:15:26.597Z,31.49
2023-04-26T09:17:55.856Z,34.79
2023-04-26T09:20:31.512Z,34.23
2023-04-26T09:23:11.777Z,31.76
2023-04-26T09:25:38.779Z,27.58
2023-04-26T09:28:20.123Z,23.37
2023-04-26T09:30:47.425Z,19.80
2023-04-26T09:33:15.016Z,17.63
2023-04-26T09:35:43.142Z,16.41
2023-04-26T09:38:18.203Z,15.96
2023-04-26T09:40:51.616Z,15.17
2023-04-26T09:43:20.131Z,14.90
2023-04-26T09:45:51.982Z,17.35
2023-04-26T09:48:23.173Z,20.71
2023-04-26T09:50:52.807Z,19.70
2023-04-26T09:53:40.101Z,20.33
2023-04-26T09:56:08.734Z,24.14
2023-04-26T09:58:38.789Z,29.85
2023-04-26T10:01:07.521Z,33.53
2023-04-26T10:03:38.704Z,35.08
2023-04-26T10:06:06.169Z,35.14
2023-04-26T10:08:34.976Z,36.05
2023-04-26T10:11:04.569Z,35.69
2023-04-26T10:13:35.919Z,37.57
2023-04-26T10:16:03.429Z,37.65
2023-04-26T10:18:31.789Z,31.03
2023-04-26T10:21:07.743Z,23.40
2023-04-26T10:23:35.372Z,19.71
2023-04-26T10:26:02.345Z,17.55
2023-04-26T10:28:44.899Z,16.58
2023-04-26T10:31:12.611Z,18.19
2023-04-26T10:33:39.517Z,19.32
2023-04-26T10:36:10.868Z,24.14
2023-04-26T10:38:58.975Z,22.94
2023-04-26T10:41:43.979Z,28.71
2023-04-26T10:44:41.503Z,32.03
2023-04-26T10:47:22.438Z,28.59
2023-04-26T10:49:49.560Z,23.86
2023-04-26T10:52:20.667Z,19.96
2023-04-26T10:54:58.711Z,17.54
2023-04-26T10:57:51.447Z,17.48
2023-04-26T11:00:21.352Z,18.31
2023-04-26T11:03:05.026Z,19.25
2023-04-26T11:05:36.681Z,18.76
2023-04-26T11:08:25.182Z,22.07
2023-04-26T11:10:58.937Z,28.26
2023-04-26T11:13:26.092Z,29.28
2023-04-26T11:15:54.708Z,26.46
2023-04-26T11:18:22.560Z,21.30
2023-04-26T11:20:49.832Z,19.05
2023-04-26T11:23:20.057Z,22.74
2023-04-26T11:25:47.368Z,29.93
2023-04-26T11:28:14.376Z,31.26
2023-04-26T11:30:41.610Z,30.27
2023-04-26T11:33:25.343Z,24.87
2023-04-26T11:35:53.719Z,30.18
2023-04-26T11:38:25.137Z,31.38
2023-04-26T11:41:03.300Z,30.02
2023-04-26T11:43:32.961Z,24.82
2023-04-26T11:46:07.024Z,20.45
2023-04-26T11:48:36.648Z,17.66
2023-04-26T11:51:05.749Z,22.74
2023-04-26T11:53:38.187Z,23.87
2023-04-26T11:56:18.410Z,23.77
2023-04-26T11:58:52.167Z,25.56
2023-04-26T12:01:27.776Z,22.09
2023-04-26T12:03:59.931Z,19.36
2023-04-26T12:06:42.911Z,18.98
2023-04-26T12:09:11.717Z,20.35
2023-04-26T12:11:39.527Z,18.14
2023-04-26T12:14:08.107Z,15.87
2023-04-26T12:16:40.339Z,14.90
2023-04-26T12:19:09.193Z,14.08
2023-04-26T12:21:48.463Z,13.48
2023-04-26T12:24:37.126Z,14.48
2023-04-26T12:27:07.397Z,15.27
2023-04-26T12:29:35.043Z,17.32
2023-04-26T12:32:02.895Z,17.56
2023-04-26T12:34:32.731Z,16.74
2023-04-26T12:37:02.405Z,16.27
2023-04-26T12:39:29.217Z,15.63
2023-04-26T12:41:56.254Z,15.58
2023-04-26T12:44:23.265Z,15.62
2023-04-26T12:46:51.589Z,15.59
2023-04-26T12:49:18.461Z,14.88
2023-04-26T12:51:46.507Z,15.41
2023-04-26T12:54:13.751Z,15.50
2023-04-26T12:56:46.815Z,15.03
2023-04-26T12:59:13.875Z,15.47
2023-04-26T13:01:41.595Z,15.44
2023-04-26T13:04:09.329Z,15.28
2023-04-26T13:06:36.596Z,15.47
2023-04-26T13:09:03.996Z,15.42
2023-04-26T13:11:31.176Z,15.54
2023-04-26T13:14:00.791Z,14.72
2023-04-26T13:16:27.853Z,15.03
2023-04-26T13:18:55.808Z,15.26
2023-04-26T13:21:23.063Z,15.35
2023-04-26T13:23:50.063Z,15.69
2023-04-26T13:26:18.492Z,15.36
2023-04-26T13:28:45.345Z,14.05
2023-04-26T13:31:12.386Z,14.34
2023-04-26T13:33:39.400Z,14.28
2023-04-26T13:36:06.600Z,14.27
2023-04-26T13:38:33.703Z,15.05
2023-04-26T13:41:00.822Z,15.18
2023-04-26T13:43:27.842Z,15.61
2023-04-26T13:45:54.941Z,15.68
2023-04-26T13:48:22.250Z,15.88
2023-04-26T13:50:49.352Z,15.49
2023-04-26T13:53:16.489Z,15.00
2023-04-26T13:55:43.778Z,15.59
2023-04-26T13:58:10.765Z,15.05
2023-04-26T14:00:39.146Z,14.30
2023-04-26T14:03:06.747Z,13.83
2023-04-26T14:05:35.070Z,13.85
2023-04-26T14:08:02.683Z,13.82
2023-04-26T14:10:29.881Z,13.22
2023-04-26T14:12:56.893Z,12.98
2023-04-26T14:15:24.029Z,13.31
2023-04-26T14:17:51.495Z,13.35
2023-04-26T14:20:18.590Z,13.51
2023-04-26T14:22:45.819Z,13.46
2023-04-26T14:25:12.797Z,13.23
2023-04-26T14:27:40.620Z,13.42
2023-04-26T14:30:08.088Z,13.50
2023-04-26T14:32:35.348Z,13.40
2023-04-26T14:35:02.350Z,13.51
2023-04-26T14:37:29.429Z,13.45
2023-04-26T14:39:56.370Z,13.30
2023-04-26T14:42:23.604Z,13.26
2023-04-26T14:44:50.549Z,13.33
2023-04-26T14:47:17.564Z,13.55
2023-04-26T14:49:44.728Z,13.68
2023-04-26T14:52:11.970Z,13.91
2023-04-26T14:54:43.646Z,13.65
2023-04-26T14:57:10.844Z,13.37
2023-04-26T14:59:37.853Z,13.36
2023-04-26T15:02:05.395Z,13.27
2023-04-26T15:04:32.804Z,13.47
2023-04-26T15:07:02.900Z,13.22
2023-04-26T15:09:30.820Z,12.74
2023-04-26T15:11:57.938Z,12.66
2023-04-26T15:14:24.947Z,12.69
2023-04-26T15:16:51.878Z,13.17
2023-04-26T15:19:18.812Z,13.57
2023-04-26T15:21:45.650Z,14.09
2023-04-26T15:24:12.478Z,13.83
2023-04-26T15:26:39.807Z,13.84
2023-04-26T15:29:06.742Z,13.37
2023-04-26T15:31:34.520Z,12.91
2023-04-26T15:34:02.682Z,12.85
2023-04-26T15:36:29.635Z,12.81
2023-04-26T15:38:56.827Z,12.78
2023-04-26T15:41:33.349Z,12.98
2023-04-26T15:44:00.355Z,13.08
2023-04-26T15:46:27.494Z,13.25
2023-04-26T15:48:54.490Z,13.41
2023-04-26T15:51:21.729Z,12.95
2023-04-26T15:53:51.263Z,12.96
2023-04-26T15:56:18.217Z,13.25
2023-04-26T15:58:46.459Z,13.22
2023-04-26T16:01:16.645Z,12.79
2023-04-26T16:03:47.305Z,12.66
2023-04-26T16:06:14.651Z,12.31
2023-04-26T16:08:41.753Z,11.95
2023-04-26T16:11:08.883Z,11.92
2023-04-26T16:13:35.782Z,12.03
2023-04-26T16:16:08.837Z,11.70
2023-04-26T16:18:36.215Z,11.49
2023-04-26T16:21:10.908Z,11.63
2023-04-26T16:23:40.571Z,11.62
2023-04-26T16:26:08.450Z,11.53
2023-04-26T16:28:36.148Z,12.02
2023-04-26T16:31:03.247Z,12.14
2023-04-26T16:33:30.506Z,12.16
2023-04-26T16:35:57.505Z,11.72
2023-04-26T16:38:24.974Z,11.56
2023-04-26T16:40:58.875Z,11.17
2023-04-26T16:43:29.721Z,10.88
2023-04-26T16:46:08.709Z,10.80
2023-04-26T16:48:37.536Z,10.73
2023-04-26T16:51:07.636Z,10.54
2023-04-26T16:53:36.204Z,10.06
2023-04-26T16:56:06.299Z,9.93
2023-04-26T16:58:33.092Z,10.11
2023-04-26T17:01:00.131Z,10.16
2023-04-26T17:03:28.068Z,10.12
2023-04-26T17:05:54.977Z,10.06
2023-04-26T17:08:24.029Z,9.80
2023-04-26T17:10:52.073Z,9.62
2023-04-26T17:13:19.471Z,9.32
2023-04-26T17:15:46.659Z,9.11
2023-04-26T17:18:13.630Z,9.22
2023-04-26T17:20:41.402Z,9.23
2023-04-26T17:23:08.990Z,9.36
2023-04-26T17:25:38.676Z,9.35
2023-04-26T17:28:05.569Z,9.11
2023-04-26T17:30:32.722Z,9.01
2023-04-26T17:33:02.738Z,8.70
2023-04-26T17:35:29.716Z,8.66
2023-04-26T17:37:56.536Z,8.28
2023-04-26T17:40:23.315Z,8.21
2023-04-26T17:42:51.392Z,8.10
2023-04-26T17:45:18.837Z,7.93
2023-04-26T17:47:46.528Z,7.96
2023-04-26T17:50:13.706Z,7.94
2023-04-26T17:52:40.739Z,7.89
2023-04-26T17:55:10.217Z,7.73
2023-04-26T17:57:37.507Z,7.47
2023-04-26T18:00:06.902Z,7.34
2023-04-26T18:02:34.680Z,7.18
2023-04-26T18:05:01.776Z,7.09
2023-04-26T18:07:28.663Z,6.88
2023-04-26T18:09:58.782Z,6.82
2023-04-26T18:12:28.727Z,6.88
2023-04-26T18:14:55.606Z,6.81
2023-04-26T18:17:22.897Z,6.69
2023-04-26T18:19:49.961Z,6.68
2023-04-26T18:22:17.141Z,6.43
2023-04-26T18:24:44.589Z,6.58
2023-04-26T18:27:13.224Z,6.63
2023-04-26T18:29:40.158Z,6.95
2023-04-26T18:32:07.153Z,6.68
2023-04-26T18:34:34.047Z,6.72
2023-04-26T18:37:01.282Z,6.49
2023-04-26T18:39:28.511Z,6.28
2023-04-26T18:42:00.355Z,6.24
2023-04-26T18:44:27.434Z,5.98
2023-04-26T18:46:57.561Z,5.85
2023-04-26T18:49:27.097Z,5.70
2023-04-26T18:51:54.776Z,5.54
2023-04-26T18:54:21.794Z,5.46
2023-04-26T18:56:48.645Z,5.38
2023-04-26T18:59:18.554Z,5.03
2023-04-26T19:01:45.328Z,5.27
2023-04-26T19:04:15.445Z,5.16
2023-04-26T19:06:42.388Z,5.10
2023-04-26T19:09:17.076Z,5.16
2023-04-26T19:11:46.903Z,4.96
2023-04-26T19:14:14.104Z,4.83
2023-04-26T19:16:41.068Z,4.80
2023-04-26T19:19:08.001Z,4.82
2023-04-26T19:21:35.531Z,4.75
2023-04-26T19:24:02.576Z,4.62
2023-04-26T19:26:29.549Z,4.70
2023-04-26T19:28:56.608Z,4.73
2023-04-26T19:31:23.696Z,4.90
2023-04-26T19:33:50.816Z,4.96
2023-04-26T19:36:17.673Z,5.03
2023-04-26T19:38:44.846Z,4.91
2023-04-26T19:41:11.696Z,4.80
2023-04-26T19:43:41.001Z,4.90
2023-04-26T19:46:12.352Z,4.56
2023-04-26T19:48:39.930Z,4.52
2023-04-26T19:51:07.325Z,4.48
2023-04-26T19:53:35.501Z,4.43
2023-04-26T19:56:03.501Z,4.33
2023-04-26T19:58:30.621Z,4.18
2023-04-26T20:00:57.664Z,4.14
2023-04-26T20:03:24.704Z,4.19
2023-04-26T20:05:54.696Z,4.09
2023-04-26T20:08:21.772Z,4.06
2023-04-26T20:10:48.618Z,4.12
2023-04-26T20:13:19.549Z,4.05
2023-04-26T20:15:46.495Z,4.05
2023-04-26T20:18:13.266Z,4.17
2023-04-26T20:20:44.005Z,4.18
2023-04-26T20:23:11.010Z,4.30
2023-04-26T20:25:38.117Z,4.44
2023-04-26T20:28:05.100Z,4.90
2023-04-26T20:30:34.052Z,4.72
2023-04-26T20:33:01.017Z,4.70
2023-04-26T20:35:28.199Z,4.87
2023-04-26T20:37:55.274Z,4.99
2023-04-26T20:40:23.407Z,5.08
2023-04-26T20:42:50.263Z,5.06
2023-04-26T20:45:18.335Z,4.89
2023-04-26T20:47:46.015Z,4.83
2023-04-26T20:50:13.113Z,4.47
2023-04-26T20:52:40.375Z,4.34
2023-04-26T20:55:09.585Z,4.01
2023-04-26T20:57:36.582Z,3.89
2023-04-26T21:00:04.337Z,3.80
2023-04-26T21:02:31.323Z,3.53
2023-04-26T21:04:58.322Z,3.45
2023-04-26T21:07:25.750Z,3.58
2023-04-26T21:09:52.729Z,3.48
2023-04-26T21:12:19.939Z,3.40
2023-04-26T21:14:48.119Z,3.44
2023-04-26T21:17:15.451Z,3.42
2023-04-26T21:19:42.516Z,3.39
2023-04-26T21:22:12.545Z,3.35
2023-04-26T21:24:39.483Z,3.20
2023-04-26T21:27:06.663Z,3.23
2023-04-26T21:29:33.467Z,3.11
2023-04-26T21:32:00.436Z,3.03
2023-04-26T21:34:27.508Z,3.01
2023-04-26T21:36:55.450Z,3.04
2023-04-26T21:39:22.693Z,2.77
2023-04-26T21:41:49.667Z,2.69
2023-04-26T21:44:16.908Z,2.59
2023-04-26T21:46:44.054Z,2.71
2023-04-26T21:49:11.078Z,2.47
2023-04-26T21:51:38.332Z,2.33
2023-04-26T21:54:05.339Z,2.36
2023-04-26T21:56:32.776Z,2.42
2023-04-26T21:58:59.606Z,2.60
2023-04-26T22:01:27.095Z,2.72
2023-04-26T22:03:54.279Z,2.79
2023-04-26T22:06:21.316Z,2.65
2023-04-26T22:08:48.323Z,2.55
2023-04-26T22:11:16.305Z,2.39
2023-04-26T22:13:43.102Z,2.48
2023-04-26T22:16:10.006Z,2.27
2023-04-26T22:18:36.813Z,2.19
2023-04-26T22:21:03.856Z,2.17
2023-04-26T22:23:31.634Z,1.98
2023-04-26T22:26:00.756Z,1.66
2023-04-26T22:28:30.507Z,1.83
2023-04-26T22:30:57.516Z,1.71
2023-04-26T22:33:24.955Z,1.65
2023-04-26T22:35:51.789Z,1.75
2023-04-26T22:38:18.774Z,1.78
2023-04-26T22:40:48.266Z,1.95
2023-04-26T22:43:15.198Z,1.78
2023-04-26T22:45:42.092Z,1.82
2023-04-26T22:48:09.076Z,1.81
2023-04-26T22:50:38.822Z,1.74
2023-04-26T22:53:05.642Z,1.78
2023-04-26T22:55:32.584Z,1.69
2023-04-26T22:57:59.412Z,1.73
2023-04-26T23:00:26.439Z,1.88
2023-04-26T23:02:53.547Z,1.76
2023-04-26T23:05:20.534Z,1.84
2023-04-26T23:07:47.412Z,1.84
2023-04-26T23:10:14.395Z,1.99
2023-04-26T23:12:41.480Z,2.04
2023-04-26T23:15:09.055Z,2.04
2023-04-26T23:17:36.182Z,1.97
2023-04-26T23:20:11.987Z,1.98
2023-04-26T23:22:43.492Z,1.90
2023-04-26T23:25:10.866Z,1.87
2023-04-26T23:27:38.495Z,1.84
2023-04-26T23:30:06.678Z,1.99
2023-04-26T23:32:33.782Z,1.91
2023-04-26T23:35:00.873Z,1.82
2023-04-26T23:37:27.840Z,1.92
2023-04-26T23:39:57.391Z,1.87
2023-04-26T23:42:24.372Z,2.11
2023-04-26T23:44:51.411Z,2.09
2023-04-26T23:47:18.693Z,1.84
2023-04-26T23:49:45.695Z,1.96
2023-04-26T23:52:12.690Z,2.00
2023-04-26T23:54:40.005Z,1.93
2023-04-26T23:57:06.997Z,2.22
2023-04-26T23:59:33.921Z,1.83
